createdAt,value
2022-10-05T00:00:06.438Z,17.50
2022-10-05T00:02:34.474Z,17.50
2022-10-05T00:05:02.071Z,17.40
2022-10-05T00:07:30.089Z,17.20
2022-10-05T00:09:58.466Z,17.20
2022-10-05T00:12:26.776Z,17.00
2022-10-05T00:14:59.496Z,17.10
2022-10-05T00:17:28.415Z,17.10
2022-10-05T00:19:55.890Z,17.10
2022-10-05T00:22:24.827Z,17.20
2022-10-05T00:24:56.376Z,17.20
2022-10-05T00:27:31.708Z,17.30
2022-10-05T00:30:00.650Z,17.40
2022-10-05T00:32:28.354Z,17.40
2022-10-05T00:34:57.411Z,17.30
2022-10-05T00:37:25.003Z,17.20
2022-10-05T00:39:52.505Z,17.30
2022-10-05T00:42:30.528Z,17.20
2022-10-05T00:45:01.856Z,17.10
2022-10-05T00:47:32.467Z,17.40
2022-10-05T00:50:20.181Z,17.30
2022-10-05T00:53:07.848Z,17.40
2022-10-05T00:55:44.397Z,17.20
2022-10-05T00:58:21.219Z,17.10
2022-10-05T01:01:03.028Z,17.00
2022-10-05T01:03:30.686Z,17.20
2022-10-05T01:06:05.066Z,17.40
2022-10-05T01:08:38.765Z,17.50
2022-10-05T01:11:20.726Z,17.50
2022-10-05T01:13:48.258Z,17.50
2022-10-05T01:16:30.398Z,17.60
2022-10-05T01:19:07.242Z,17.60
2022-10-05T01:21:42.595Z,17.40
2022-10-05T01:24:20.285Z,17.50
2022-10-05T01:26:57.069Z,17.50
2022-10-05T01:29:38.627Z,17.40
2022-10-05T01:32:12.353Z,17.40
2022-10-05T01:34:44.580Z,17.40
2022-10-05T01:37:12.179Z,17.50
2022-10-05T01:39:48.754Z,17.50
2022-10-05T01:42:29.895Z,17.60
2022-10-05T01:45:06.944Z,17.70
2022-10-05T01:47:41.284Z,17.50
2022-10-05T01:50:16.466Z,17.60
2022-10-05T01:52:44.189Z,17.50
2022-10-05T01:55:15.938Z,17.40
2022-10-05T01:58:02.347Z,17.40
2022-10-05T02:00:32.120Z,17.50
2022-10-05T02:03:29.114Z,17.60
2022-10-05T02:05:58.814Z,17.60
2022-10-05T02:08:29.961Z,17.60
2022-10-05T02:11:00.754Z,17.50
2022-10-05T02:13:38.464Z,17.50
2022-10-05T02:16:29.420Z,17.60
2022-10-05T02:19:01.131Z,17.70
2022-10-05T02:21:30.966Z,17.70
2022-10-05T02:24:00.375Z,17.80
2022-10-05T02:26:29.043Z,17.80
2022-10-05T02:28:58.897Z,17.80
2022-10-05T02:31:30.358Z,17.70
2022-10-05T02:34:16.986Z,17.60
2022-10-05T02:36:45.970Z,17.50
2022-10-05T02:39:21.491Z,17.30
2022-10-05T02:41:55.340Z,17.40
2022-10-05T02:44:41.648Z,17.50
2022-10-05T02:47:12.676Z,17.60
2022-10-05T02:49:43.456Z,17.50
2022-10-05T02:52:29.907Z,17.40
2022-10-05T02:55:00.953Z,17.50
2022-10-05T02:57:28.412Z,17.60
2022-10-05T03:00:15.456Z,17.50
2022-10-05T03:02:46.465Z,17.30
2022-10-05T03:05:24.093Z,17.50
2022-10-05T03:07:54.813Z,17.50
2022-10-05T03:10:40.959Z,17.50
2022-10-05T03:13:17.949Z,17.60
2022-10-05T03:15:54.033Z,17.60
2022-10-05T03:18:32.329Z,17.50
2022-10-05T03:21:19.787Z,17.20
2022-10-05T03:24:14.475Z,17.30
2022-10-05T03:26:45.431Z,17.30
2022-10-05T03:29:31.688Z,17.50
2022-10-05T03:32:35.046Z,17.40
2022-10-05T03:35:20.941Z,17.30
2022-10-05T03:37:49.296Z,17.30
2022-10-05T03:40:23.040Z,17.30
2022-10-05T03:43:06.231Z,17.20
2022-10-05T03:45:56.379Z,17.50
2022-10-05T03:48:28.596Z,17.50
2022-10-05T03:51:02.535Z,17.40
2022-10-05T03:53:31.402Z,17.40
2022-10-05T03:56:11.162Z,17.50
2022-10-05T03:58:51.830Z,17.70
2022-10-05T04:01:21.576Z,17.60
2022-10-05T04:03:53.582Z,17.60
2022-10-05T04:06:30.090Z,17.70
2022-10-05T04:08:57.705Z,17.70
2022-10-05T04:11:44.743Z,17.70
2022-10-05T04:14:18.569Z,17.80
2022-10-05T04:16:51.836Z,17.70
2022-10-05T04:19:40.960Z,17.60
2022-10-05T04:22:14.582Z,17.60
2022-10-05T04:24:45.965Z,17.50
2022-10-05T04:27:17.007Z,17.50
2022-10-05T04:29:53.706Z,17.60
2022-10-05T04:32:27.069Z,17.60
2022-10-05T04:34:57.619Z,17.60
2022-10-05T04:37:46.496Z,17.60
2022-10-05T04:40:15.515Z,17.60
2022-10-05T04:43:01.368Z,17.70
2022-10-05T04:45:34.966Z,17.70
2022-10-05T04:48:03.086Z,17.80
2022-10-05T04:50:43.071Z,17.80
2022-10-05T04:53:34.490Z,17.70
2022-10-05T04:56:29.006Z,17.50
2022-10-05T04:59:07.230Z,17.50
2022-10-05T05:01:55.039Z,17.40
2022-10-05T05:04:51.963Z,17.30
2022-10-05T05:07:20.723Z,17.30
2022-10-05T05:09:48.307Z,17.30
2022-10-05T05:12:19.947Z,17.30
2022-10-05T05:14:47.784Z,17.30
2022-10-05T05:17:18.959Z,17.20
2022-10-05T05:19:49.545Z,17.40
2022-10-05T05:22:25.894Z,17.40
2022-10-05T05:25:05.702Z,17.50
2022-10-05T05:27:52.059Z,17.50
2022-10-05T05:30:23.001Z,17.30
2022-10-05T05:32:51.946Z,17.40
2022-10-05T05:35:25.554Z,17.40
2022-10-05T05:37:53.695Z,17.40
2022-10-05T05:40:21.237Z,17.40
2022-10-05T05:42:53.575Z,17.30
2022-10-05T05:45:26.936Z,17.30
2022-10-05T05:47:57.137Z,17.20
2022-10-05T05:50:44.644Z,17.20
2022-10-05T05:53:25.346Z,17.30
2022-10-05T05:55:56.457Z,17.40
2022-10-05T05:58:27.874Z,17.60
2022-10-05T06:00:58.953Z,17.70
2022-10-05T06:03:27.006Z,17.80
2022-10-05T06:05:59.527Z,17.80
2022-10-05T06:08:30.782Z,17.70
2022-10-05T06:11:25.759Z,17.70
2022-10-05T06:13:56.279Z,17.60
2022-10-05T06:16:23.823Z,17.50
2022-10-05T06:18:56.894Z,17.60
2022-10-05T06:21:24.396Z,17.70
2022-10-05T06:23:59.383Z,17.60
2022-10-05T06:26:50.045Z,17.50
2022-10-05T06:29:21.156Z,17.40
2022-10-05T06:32:05.418Z,17.30
2022-10-05T06:34:58.027Z,17.30
2022-10-05T06:37:49.125Z,17.40
2022-10-05T06:40:16.706Z,17.70
2022-10-05T06:42:49.936Z,17.80
2022-10-05T06:45:40.814Z,17.90
2022-10-05T06:48:39.123Z,17.90
2022-10-05T06:51:29.875Z,18.10
2022-10-05T06:54:30.727Z,18.20
2022-10-05T06:57:10.538Z,18.10
2022-10-05T07:00:04.874Z,18.20
2022-10-05T07:02:54.652Z,18.20
2022-10-05T07:05:41.416Z,18.30
2022-10-05T07:08:08.954Z,18.40
2022-10-05T07:10:51.381Z,18.50
2022-10-05T07:13:22.058Z,18.50
2022-10-05T07:15:52.877Z,18.50
2022-10-05T07:18:24.554Z,18.60
2022-10-05T07:21:01.610Z,18.70
2022-10-05T07:23:32.190Z,18.80
2022-10-05T07:26:19.176Z,18.90
2022-10-05T07:28:46.755Z,19.00
2022-10-05T07:31:15.210Z,19.00
2022-10-05T07:33:51.669Z,19.00
2022-10-05T07:36:55.034Z,19.00
2022-10-05T07:39:55.298Z,19.00
2022-10-05T07:42:33.324Z,19.20
2022-10-05T07:45:13.473Z,19.20
2022-10-05T07:47:48.331Z,19.40
2022-10-05T07:50:18.990Z,19.50
2022-10-05T07:52:54.535Z,19.70
2022-10-05T07:55:23.476Z,19.70
2022-10-05T07:58:13.289Z,19.60
2022-10-05T08:01:01.118Z,19.60
2022-10-05T08:03:42.586Z,19.70
2022-10-05T08:06:17.317Z,19.80
2022-10-05T08:09:00.258Z,20.00
2022-10-05T08:11:30.031Z,20.10
2022-10-05T08:13:57.532Z,20.10
2022-10-05T08:16:28.921Z,20.00
2022-10-05T08:19:06.851Z,20.10
2022-10-05T08:21:36.488Z,20.20
2022-10-05T08:24:16.118Z,20.30
2022-10-05T08:26:43.644Z,20.40
2022-10-05T08:29:21.926Z,20.70
2022-10-05T08:31:53.121Z,20.80
2022-10-05T08:34:31.553Z,21.00
2022-10-05T08:36:59.499Z,21.20
2022-10-05T08:39:29.745Z,21.10
2022-10-05T08:42:12.121Z,21.30
2022-10-05T08:44:48.664Z,21.20
2022-10-05T08:47:25.572Z,21.10
2022-10-05T08:49:53.066Z,21.10
2022-10-05T08:52:20.537Z,21.10
2022-10-05T08:55:17.897Z,21.10
2022-10-05T08:57:46.735Z,21.10
2022-10-05T09:00:19.032Z,21.10
2022-10-05T09:02:46.770Z,21.10
2022-10-05T09:05:33.179Z,21.20
2022-10-05T09:08:06.950Z,21.20
2022-10-05T09:10:47.839Z,21.30
2022-10-05T09:13:15.360Z,21.40
2022-10-05T09:15:49.096Z,21.60
2022-10-05T09:18:22.603Z,21.50
2022-10-05T09:20:54.120Z,21.60
2022-10-05T09:23:43.144Z,21.60
2022-10-05T09:26:29.760Z,21.70
2022-10-05T09:29:29.748Z,21.70
2022-10-05T09:32:00.344Z,21.60
2022-10-05T09:34:47.425Z,21.70
2022-10-05T09:37:44.492Z,21.70
2022-10-05T09:40:35.199Z,21.70
2022-10-05T09:43:22.945Z,21.70
2022-10-05T09:45:56.540Z,21.70
2022-10-05T09:48:43.017Z,21.90
2022-10-05T09:51:20.956Z,22.00
2022-10-05T09:54:08.690Z,22.00
2022-10-05T09:56:39.207Z,22.00
2022-10-05T09:59:07.625Z,22.10
2022-10-05T10:01:35.264Z,22.30
2022-10-05T10:04:10.335Z,22.30
2022-10-05T10:06:47.583Z,22.30
2022-10-05T10:09:38.828Z,22.30
2022-10-05T10:12:12.394Z,22.50
2022-10-05T10:15:02.616Z,22.60
2022-10-05T10:17:49.386Z,22.60
2022-10-05T10:20:23.192Z,22.60
2022-10-05T10:22:50.675Z,22.70
2022-10-05T10:25:19.453Z,22.80
2022-10-05T10:27:51.635Z,22.70
2022-10-05T10:30:37.655Z,22.60
2022-10-05T10:33:24.073Z,22.60
2022-10-05T10:36:11.757Z,22.80
2022-10-05T10:38:40.886Z,22.80
2022-10-05T10:41:41.173Z,22.90
2022-10-05T10:44:17.887Z,22.90
2022-10-05T10:47:04.302Z,22.80
2022-10-05T10:49:57.908Z,22.80
2022-10-05T10:52:28.543Z,22.90
2022-10-05T10:55:05.639Z,23.00
2022-10-05T10:57:33.600Z,23.00
2022-10-05T11:00:24.566Z,23.00
2022-10-05T11:02:55.430Z,23.00
2022-10-05T11:05:32.273Z,23.20
2022-10-05T11:08:02.878Z,23.20
2022-10-05T11:10:36.443Z,23.40
2022-10-05T11:13:04.014Z,23.30
2022-10-05T11:15:50.023Z,23.10
2022-10-05T11:18:37.180Z,22.70
2022-10-05T11:21:04.737Z,22.60
2022-10-05T11:23:58.604Z,22.60
2022-10-05T11:26:44.914Z,22.60
2022-10-05T11:29:24.988Z,22.70
2022-10-05T11:32:05.243Z,22.50
2022-10-05T11:34:34.075Z,22.40
2022-10-05T11:37:01.691Z,22.50
2022-10-05T11:39:48.158Z,22.50
2022-10-05T11:42:21.678Z,22.40
2022-10-05T11:44:58.251Z,22.60
2022-10-05T11:47:28.145Z,22.60
2022-10-05T11:49:55.710Z,22.80
2022-10-05T11:52:27.510Z,22.70
2022-10-05T11:55:16.382Z,22.70
2022-10-05T11:57:47.153Z,22.70
2022-10-05T12:00:25.428Z,22.60
2022-10-05T12:02:59.006Z,22.70
2022-10-05T12:05:32.679Z,22.90
2022-10-05T12:08:18.907Z,23.20
2022-10-05T12:10:52.954Z,23.20
2022-10-05T12:13:25.463Z,23.20
2022-10-05T12:15:53.003Z,23.30
2022-10-05T12:18:39.387Z,23.40
2022-10-05T12:21:09.566Z,23.50
2022-10-05T12:23:46.272Z,23.60
2022-10-05T12:26:16.512Z,23.30
2022-10-05T12:28:52.432Z,23.20
2022-10-05T12:31:30.065Z,23.40
2022-10-05T12:34:01.861Z,23.80
2022-10-05T12:37:02.578Z,24.20
2022-10-05T12:39:44.748Z,24.50
2022-10-05T12:42:17.908Z,24.70
2022-10-05T12:45:00.654Z,24.70
2022-10-05T12:47:37.374Z,24.70
2022-10-05T12:50:17.101Z,24.70
2022-10-05T12:52:57.428Z,24.70
2022-10-05T12:55:27.861Z,24.70
2022-10-05T12:58:09.310Z,24.90
2022-10-05T13:00:39.450Z,25.10
2022-10-05T13:03:17.462Z,25.10
2022-10-05T13:05:49.807Z,25.00
2022-10-05T13:08:21.859Z,24.90
2022-10-05T13:11:01.815Z,24.80
2022-10-05T13:13:42.023Z,24.60
2022-10-05T13:16:21.557Z,24.50
2022-10-05T13:19:07.852Z,24.80
2022-10-05T13:21:35.410Z,24.80
2022-10-05T13:24:18.136Z,24.60
2022-10-05T13:26:48.722Z,24.50
2022-10-05T13:29:24.310Z,24.50
2022-10-05T13:31:54.941Z,24.50
2022-10-05T13:34:22.613Z,24.50
2022-10-05T13:37:06.062Z,24.60
2022-10-05T13:39:39.870Z,24.60
2022-10-05T13:42:08.889Z,24.50
2022-10-05T13:44:42.930Z,24.40
2022-10-05T13:47:40.099Z,24.40
2022-10-05T13:50:16.222Z,24.40
2022-10-05T13:53:01.866Z,24.50
2022-10-05T13:55:49.990Z,24.30
2022-10-05T13:58:25.137Z,24.10
2022-10-05T14:00:58.070Z,24.10
2022-10-05T14:03:35.002Z,24.00
2022-10-05T14:06:30.817Z,24.00
2022-10-05T14:09:00.073Z,24.00
2022-10-05T14:11:31.733Z,24.10
2022-10-05T14:14:18.054Z,24.00
2022-10-05T14:16:51.944Z,23.90
2022-10-05T14:19:26.764Z,23.90
2022-10-05T14:22:04.279Z,23.90
2022-10-05T14:24:50.241Z,23.80
2022-10-05T14:27:21.193Z,23.80
2022-10-05T14:29:58.330Z,23.70
2022-10-05T14:32:27.266Z,23.70
2022-10-05T14:35:07.911Z,23.70
2022-10-05T14:37:43.577Z,23.70
2022-10-05T14:40:23.385Z,23.70
2022-10-05T14:42:51.192Z,23.70
2022-10-05T14:45:20.153Z,23.60
2022-10-05T14:47:47.647Z,23.60
2022-10-05T14:50:18.042Z,23.50
2022-10-05T14:53:03.747Z,23.50
2022-10-05T14:55:50.135Z,23.40
2022-10-05T14:58:36.410Z,23.40
2022-10-05T15:01:13.887Z,23.50
2022-10-05T15:03:46.907Z,23.50
2022-10-05T15:06:37.795Z,23.40
2022-10-05T15:09:17.986Z,23.30
2022-10-05T15:11:53.520Z,23.20
2022-10-05T15:14:41.339Z,23.30
2022-10-05T15:17:35.137Z,23.40
2022-10-05T15:20:06.451Z,23.40
2022-10-05T15:22:43.022Z,23.40
2022-10-05T15:25:13.396Z,23.20
2022-10-05T15:27:40.843Z,23.20
2022-10-05T15:30:12.724Z,23.20
2022-10-05T15:33:05.340Z,23.20
2022-10-05T15:35:43.207Z,23.10
2022-10-05T15:38:21.078Z,23.10
2022-10-05T15:40:51.619Z,23.10
2022-10-05T15:43:23.393Z,23.10
2022-10-05T15:45:54.359Z,23.00
2022-10-05T15:48:25.477Z,22.90
2022-10-05T15:50:58.014Z,22.80
2022-10-05T15:53:37.416Z,22.80
2022-10-05T15:56:09.599Z,22.70
2022-10-05T15:58:45.279Z,22.70
2022-10-05T16:01:18.659Z,22.80
2022-10-05T16:03:49.761Z,22.80
2022-10-05T16:06:55.657Z,22.70
2022-10-05T16:09:40.110Z,22.70
2022-10-05T16:12:10.770Z,22.50
2022-10-05T16:14:56.813Z,22.50
2022-10-05T16:17:35.426Z,22.40
2022-10-05T16:20:16.899Z,22.30
2022-10-05T16:22:59.866Z,22.20
2022-10-05T16:25:30.173Z,22.10
2022-10-05T16:28:05.344Z,22.00
2022-10-05T16:30:41.688Z,21.90
2022-10-05T16:33:32.276Z,21.80
2022-10-05T16:36:18.311Z,21.70
2022-10-05T16:39:06.034Z,21.70
2022-10-05T16:41:39.465Z,21.70
2022-10-05T16:44:19.230Z,21.70
2022-10-05T16:46:53.664Z,21.70
2022-10-05T16:49:21.148Z,21.60
2022-10-05T16:51:49.991Z,21.50
2022-10-05T16:54:23.599Z,21.50
2022-10-05T16:56:51.516Z,21.50
2022-10-05T16:59:34.379Z,21.50
2022-10-05T17:02:34.443Z,21.50
2022-10-05T17:05:04.984Z,21.40
2022-10-05T17:07:34.822Z,21.40
2022-10-05T17:10:12.344Z,21.30
2022-10-05T17:12:51.500Z,21.10
2022-10-05T17:15:37.819Z,21.00
2022-10-05T17:18:05.383Z,21.00
2022-10-05T17:20:55.899Z,21.00
2022-10-05T17:23:53.746Z,21.00
2022-10-05T17:26:39.960Z,20.90
2022-10-05T17:29:26.681Z,21.00
2022-10-05T17:32:06.356Z,20.80
2022-10-05T17:34:36.979Z,20.70
2022-10-05T17:37:23.128Z,20.60
2022-10-05T17:39:52.540Z,20.60
2022-10-05T17:42:26.952Z,20.60
2022-10-05T17:44:55.588Z,20.40
2022-10-05T17:48:01.745Z,20.50
2022-10-05T17:50:58.868Z,20.50
2022-10-05T17:54:03.631Z,20.40
2022-10-05T17:56:32.329Z,20.30
2022-10-05T17:59:01.039Z,20.40
2022-10-05T18:01:51.636Z,20.40
2022-10-05T18:04:25.401Z,20.40
2022-10-05T18:06:59.289Z,20.30
2022-10-05T18:09:27.992Z,20.20
2022-10-05T18:12:24.485Z,20.20
2022-10-05T18:15:02.517Z,20.20
2022-10-05T18:17:36.355Z,20.20
2022-10-05T18:20:18.239Z,20.20
2022-10-05T18:22:46.921Z,20.20
2022-10-05T18:25:44.028Z,20.20
2022-10-05T18:28:30.282Z,20.20
2022-10-05T18:31:20.812Z,20.10
2022-10-05T18:33:53.832Z,20.10
2022-10-05T18:36:28.296Z,20.10
2022-10-05T18:39:03.763Z,20.00
2022-10-05T18:41:43.768Z,20.00
2022-10-05T18:44:12.284Z,20.00
2022-10-05T18:46:47.393Z,20.00
2022-10-05T18:49:17.996Z,19.90
2022-10-05T18:52:04.290Z,19.80
2022-10-05T18:54:40.890Z,19.80
2022-10-05T18:57:20.875Z,19.70
2022-10-05T18:59:48.406Z,19.70
2022-10-05T19:02:24.460Z,19.60
2022-10-05T19:05:02.707Z,19.60
2022-10-05T19:07:30.228Z,19.60
2022-10-05T19:10:09.093Z,19.40
2022-10-05T19:12:41.356Z,19.50
2022-10-05T19:15:25.293Z,19.50
2022-10-05T19:17:52.843Z,19.50
2022-10-05T19:20:25.380Z,19.40
2022-10-05T19:22:56.398Z,19.40
2022-10-05T19:25:44.569Z,19.40
2022-10-05T19:28:17.633Z,19.30
2022-10-05T19:30:51.330Z,19.10
2022-10-05T19:33:28.603Z,19.10
2022-10-05T19:36:02.239Z,19.10
2022-10-05T19:38:35.800Z,19.10
2022-10-05T19:41:13.673Z,19.10
2022-10-05T19:44:00.091Z,19.00
2022-10-05T19:46:42.192Z,19.10
2022-10-05T19:49:10.757Z,19.00
2022-10-05T19:51:49.352Z,19.00
2022-10-05T19:54:30.310Z,18.90
2022-10-05T19:56:58.129Z,18.80
2022-10-05T19:59:27.322Z,18.90
2022-10-05T20:01:55.715Z,18.80
2022-10-05T20:04:36.913Z,18.80
2022-10-05T20:07:05.209Z,18.90
2022-10-05T20:09:51.588Z,18.90
2022-10-05T20:12:22.738Z,18.80
2022-10-05T20:15:28.915Z,18.80
2022-10-05T20:18:15.084Z,18.70
2022-10-05T20:20:47.148Z,18.70
2022-10-05T20:23:24.286Z,18.80
2022-10-05T20:26:11.414Z,18.70
2022-10-05T20:28:39.200Z,18.70
2022-10-05T20:31:08.205Z,18.70
2022-10-05T20:33:35.796Z,18.70
2022-10-05T20:36:03.824Z,18.70
2022-10-05T20:38:31.971Z,18.70
2022-10-05T20:40:59.821Z,18.80
2022-10-05T20:43:27.976Z,18.50
2022-10-05T20:45:55.393Z,18.60
2022-10-05T20:48:22.976Z,18.70
2022-10-05T20:50:50.421Z,18.60
2022-10-05T20:53:17.903Z,18.60
2022-10-05T20:55:45.380Z,18.60
2022-10-05T20:58:13.311Z,18.40
2022-10-05T21:00:59.533Z,18.40
2022-10-05T21:03:27.212Z,18.30
2022-10-05T21:05:54.757Z,18.30
2022-10-05T21:08:22.205Z,18.30
2022-10-05T21:10:50.579Z,18.30
2022-10-05T21:13:18.616Z,18.30
2022-10-05T21:15:46.178Z,18.20
2022-10-05T21:18:17.369Z,18.30
2022-10-05T21:20:49.023Z,18.20
2022-10-05T21:23:16.498Z,18.20
2022-10-05T21:25:43.941Z,18.20
2022-10-05T21:28:11.492Z,18.20
2022-10-05T21:30:39.045Z,18.10
2022-10-05T21:33:06.995Z,18.20
2022-10-05T21:35:34.500Z,18.20
2022-10-05T21:38:01.996Z,18.20
2022-10-05T21:40:29.538Z,18.10
2022-10-05T21:42:57.036Z,18.10
2022-10-05T21:45:24.914Z,18.00
2022-10-05T21:47:52.515Z,17.90
2022-10-05T21:50:20.157Z,17.80
2022-10-05T21:52:47.676Z,17.80
2022-10-05T21:55:16.027Z,17.80
2022-10-05T21:57:44.237Z,17.80
2022-10-05T22:00:11.972Z,17.80
2022-10-05T22:02:39.757Z,17.70
2022-10-05T22:05:07.497Z,17.70
2022-10-05T22:07:35.270Z,17.70
2022-10-05T22:10:03.074Z,17.70
2022-10-05T22:12:30.786Z,17.70
2022-10-05T22:14:58.388Z,17.70
2022-10-05T22:17:28.179Z,17.70
2022-10-05T22:19:56.054Z,17.60
2022-10-05T22:22:23.775Z,17.60
2022-10-05T22:24:52.552Z,17.60
2022-10-05T22:27:21.478Z,17.60
2022-10-05T22:29:49.923Z,17.70
2022-10-05T22:32:17.928Z,17.60
2022-10-05T22:34:45.528Z,17.60
2022-10-05T22:37:13.717Z,17.60
2022-10-05T22:39:41.517Z,17.60
2022-10-05T22:42:09.442Z,17.60
2022-10-05T22:44:36.981Z,17.60
2022-10-05T22:47:04.576Z,17.60
2022-10-05T22:49:32.101Z,17.50
2022-10-05T22:51:59.802Z,17.50
2022-10-05T22:54:29.708Z,17.50
2022-10-05T22:56:58.242Z,17.50
2022-10-05T22:59:25.920Z,17.50
2022-10-05T23:01:53.776Z,17.60
2022-10-05T23:04:21.455Z,17.50
2022-10-05T23:06:49.175Z,17.40
2022-10-05T23:09:16.669Z,17.50
2022-10-05T23:11:44.214Z,17.60
2022-10-05T23:14:11.992Z,17.50
2022-10-05T23:16:39.891Z,17.60
2022-10-05T23:19:07.387Z,17.40
2022-10-05T23:21:35.036Z,17.20
2022-10-05T23:24:03.038Z,17.20
2022-10-05T23:26:30.792Z,17.20
2022-10-05T23:28:58.552Z,17.20
2022-10-05T23:31:29.096Z,17.20
2022-10-05T23:33:56.636Z,17.10
2022-10-05T23:36:31.549Z,16.90
2022-10-05T23:38:59.208Z,16.90
2022-10-05T23:41:26.737Z,17.00
2022-10-05T23:43:57.330Z,16.90
2022-10-05T23:46:24.897Z,17.00
2022-10-05T23:48:53.339Z,16.90
2022-10-05T23:51:20.834Z,16.80
2022-10-05T23:53:48.342Z,16.80
2022-10-05T23:56:15.849Z,16.80
2022-10-05T23:58:43.439Z,16.80
